Airfield :
LOGIN :

Register | Disclaimer

   EN    FR    IT 

 










Legend :    VFR   Marginal VFR   IFR   Intensive IFR   Very Intensive IFR
Visi :
Ceiling :
>= 8 km
>= 3000ft
5 to 8 km
1000 to 3000 ft
1500m to 5 km
500 to 1000 ft
800 to 1500m
200 to 500 ft
< 800m
< 200 ft
Symbols :   Thunderstorms  Fog  Heavy snow  Heavy precipitations  Wind > 20 kt
SIGMETs :     Misc.  Thunderstorms  Icing  Turbulence  Mountain Waves  Volcanic Ashes






- Airport Elevation : 2697 ft
- IATA code : BLJ


DABT - Batna

CURRENT METAR :
  • 131600Z 10013KT 9999 SCT023 FEW026CB 37/02 Q1019

EXPIRED METARs :
  • 131500Z 29013KT 9999 SCT023 FEW026CB 40/// Q1018
  • 131400Z 27010KT 9999 SCT023 FEW026CB 40/02 Q1019

TAF TAF DABT
Valid from the 13 at 12:00 until the 14 at 12:00 UTC


131100Z 1312/1412 28012KT 9999 FEW030
TEMPO 1312/1322 FEW030TCU
PROB30
TEMPO 1313/1320 27015G35KT 5000 -TSRA FEW026CB
BECMG 1322/1324 17006KT



MET'MAP, your aeronautical weather chart ! - Copyright ORBIFLY December 2007 - Disclaimer

ORBIFLY MET'MAP TEAM :

Programming & Development : Alexandra Zaïnal
Concept & original design : Baudouin d'Aumeries
Assistance for programming : Marc-Olivier Méhu
Technical & hardware support : Manuel Goepfert

Contact : metmap@orbifly.com




SOURCES & CREDITS :

   NOAA